sensor_id;sensor_type;location;lat;lon;timestamp;pressure;altitude;pressure_sealevel;temperature;humidity
16664;BME280;8445;51.270;9.434;2024-03-25T00:00:14;98358.97;;;5.25;77.04
16664;BME280;8445;51.270;9.434;2024-03-25T00:02:41;98365.50;;;5.29;76.78
16664;BME280;8445;51.270;9.434;2024-03-25T00:05:09;98360.59;;;5.26;76.49
16664;BME280;8445;51.270;9.434;2024-03-25T00:07:38;98367.97;;;5.31;76.55
16664;BME280;8445;51.270;9.434;2024-03-25T00:10:05;98380.97;;;5.32;75.91
16664;BME280;8445;51.270;9.434;2024-03-25T00:12:35;98375.34;;;5.36;75.91
16664;BME280;8445;51.270;9.434;2024-03-25T00:15:02;98346.41;;;5.13;75.71
16664;BME280;8445;51.270;9.434;2024-03-25T00:17:28;98372.97;;;5.41;75.99
16664;BME280;8445;51.270;9.434;2024-03-25T00:19:53;98363.97;;;5.35;76.04
16664;BME280;8445;51.270;9.434;2024-03-25T00:22:21;98391.16;;;5.50;75.83
16664;BME280;8445;51.270;9.434;2024-03-25T00:24:48;98392.59;;;5.53;75.18
16664;BME280;8445;51.270;9.434;2024-03-25T00:27:15;98398.13;;;5.58;75.64
16664;BME280;8445;51.270;9.434;2024-03-25T00:29:41;98399.59;;;5.60;75.96
16664;BME280;8445;51.270;9.434;2024-03-25T00:32:07;98392.84;;;5.58;76.20
16664;BME280;8445;51.270;9.434;2024-03-25T00:34:34;98404.63;;;5.55;76.19
16664;BME280;8445;51.270;9.434;2024-03-25T00:37:00;98403.88;;;5.47;76.89
16664;BME280;8445;51.270;9.434;2024-03-25T00:39:27;98398.34;;;5.42;76.97
16664;BME280;8445;51.270;9.434;2024-03-25T00:41:53;98400.13;;;5.34;77.05
16664;BME280;8445;51.270;9.434;2024-03-25T00:44:20;98373.81;;;5.12;77.76
16664;BME280;8445;51.270;9.434;2024-03-25T00:46:46;98384.75;;;5.09;78.44
16664;BME280;8445;51.270;9.434;2024-03-25T00:49:12;98421.97;;;5.14;78.33
16664;BME280;8445;51.270;9.434;2024-03-25T00:51:38;98415.84;;;4.98;78.98
16664;BME280;8445;51.270;9.434;2024-03-25T00:54:04;98407.66;;;4.93;79.11
16664;BME280;8445;51.270;9.434;2024-03-25T00:56:31;98410.38;;;4.85;79.25
16664;BME280;8445;51.270;9.434;2024-03-25T00:58:57;98417.19;;;4.80;79.71
16664;BME280;8445;51.270;9.434;2024-03-25T01:01:34;98427.19;;;4.69;80.07
16664;BME280;8445;51.270;9.434;2024-03-25T01:04:02;98394.41;;;4.49;79.68
16664;BME280;8445;51.270;9.434;2024-03-25T01:06:28;98411.88;;;4.50;79.86
16664;BME280;8445;51.270;9.434;2024-03-25T01:08:54;98404.38;;;4.39;79.98
16664;BME280;8445;51.270;9.434;2024-03-25T01:11:20;98408.75;;;4.32;80.17
16664;BME280;8445;51.270;9.434;2024-03-25T01:13:48;98421.50;;;4.20;80.39
16664;BME280;8445;51.270;9.434;2024-03-25T01:16:20;98424.00;;;4.13;80.36
16664;BME280;8445;51.270;9.434;2024-03-25T01:18:50;98394.41;;;3.89;80.20
16664;BME280;8445;51.270;9.434;2024-03-25T01:21:26;98413.31;;;3.92;80.73
16664;BME280;8445;51.270;9.434;2024-03-25T01:23:59;98407.09;;;3.85;80.32
16664;BME280;8445;51.270;9.434;2024-03-25T01:26:27;98413.06;;;3.79;80.98
16664;BME280;8445;51.270;9.434;2024-03-25T01:28:58;98399.00;;;3.64;80.38
16664;BME280;8445;51.270;9.434;2024-03-25T01:31:26;98430.25;;;3.67;81.11
16664;BME280;8445;51.270;9.434;2024-03-25T01:33:58;98431.78;;;3.61;80.38
16664;BME280;8445;51.270;9.434;2024-03-25T01:36:46;98407.63;;;3.49;80.92
16664;BME280;8445;51.270;9.434;2024-03-25T01:39:17;98422.25;;;3.52;80.61
16664;BME280;8445;51.270;9.434;2024-03-25T01:41:46;98414.38;;;3.44;80.78
16664;BME280;8445;51.270;9.434;2024-03-25T01:44:14;98431.50;;;3.48;81.06
16664;BME280;8445;51.270;9.434;2024-03-25T01:46:40;98395.53;;;3.32;80.91
16664;BME280;8445;51.270;9.434;2024-03-25T01:49:11;98421.00;;;3.40;81.05
16664;BME280;8445;51.270;9.434;2024-03-25T01:51:45;98424.44;;;3.40;81.82
16664;BME280;8445;51.270;9.434;2024-03-25T01:54:16;98423.47;;;3.33;81.32
16664;BME280;8445;51.270;9.434;2024-03-25T01:56:45;98432.03;;;3.35;81.65
16664;BME280;8445;51.270;9.434;2024-03-25T01:59:19;98443.88;;;3.39;81.60
16664;BME280;8445;51.270;9.434;2024-03-25T02:01:51;98437.91;;;3.45;81.71
16664;BME280;8445;51.270;9.434;2024-03-25T02:04:21;98433.59;;;3.52;82.53
16664;BME280;8445;51.270;9.434;2024-03-25T02:06:49;98446.56;;;3.62;81.96
16664;BME280;8445;51.270;9.434;2024-03-25T02:09:19;98447.97;;;3.73;82.30
16664;BME280;8445;51.270;9.434;2024-03-25T02:11:46;98449.94;;;3.79;82.00
16664;BME280;8445;51.270;9.434;2024-03-25T02:14:14;98412.47;;;3.69;81.50
16664;BME280;8445;51.270;9.434;2024-03-25T02:16:42;98446.66;;;4.00;81.18
16664;BME280;8445;51.270;9.434;2024-03-25T02:19:13;98447.81;;;4.05;80.91
16664;BME280;8445;51.270;9.434;2024-03-25T02:21:42;98459.97;;;4.06;81.26
16664;BME280;8445;51.270;9.434;2024-03-25T02:24:11;98457.97;;;4.08;80.90
16664;BME280;8445;51.270;9.434;2024-03-25T02:26:37;98458.34;;;4.05;80.46
16664;BME280;8445;51.270;9.434;2024-03-25T02:29:03;98447.44;;;4.08;80.89
16664;BME280;8445;51.270;9.434;2024-03-25T02:31:29;98453.88;;;4.06;80.76
16664;BME280;8445;51.270;9.434;2024-03-25T02:33:55;98446.34;;;4.03;80.31
16664;BME280;8445;51.270;9.434;2024-03-25T02:36:21;98451.78;;;4.01;80.67
16664;BME280;8445;51.270;9.434;2024-03-25T02:38:47;98448.47;;;3.99;80.61
16664;BME280;8445;51.270;9.434;2024-03-25T02:41:14;98453.59;;;4.01;80.58
16664;BME280;8445;51.270;9.434;2024-03-25T02:43:40;98454.56;;;4.00;80.57
16664;BME280;8445;51.270;9.434;2024-03-25T02:46:06;98456.38;;;3.99;80.62
16664;BME280;8445;51.270;9.434;2024-03-25T02:48:32;98467.06;;;4.06;80.55
16664;BME280;8445;51.270;9.434;2024-03-25T02:50:58;98465.53;;;4.11;80.72
16664;BME280;8445;51.270;9.434;2024-03-25T02:53:24;98460.75;;;4.15;80.81
16664;BME280;8445;51.270;9.434;2024-03-25T02:55:49;98450.72;;;4.10;80.98
16664;BME280;8445;51.270;9.434;2024-03-25T02:58:15;98469.72;;;4.29;80.27
16664;BME280;8445;51.270;9.434;2024-03-25T03:00:41;98469.63;;;4.37;80.50
16664;BME280;8445;51.270;9.434;2024-03-25T03:03:07;98476.69;;;4.44;79.95
16664;BME280;8445;51.270;9.434;2024-03-25T03:05:33;98472.06;;;4.47;79.67
16664;BME280;8445;51.270;9.434;2024-03-25T03:08:00;98474.50;;;4.48;79.88
16664;BME280;8445;51.270;9.434;2024-03-25T03:10:26;98479.81;;;4.40;79.98
16664;BME280;8445;51.270;9.434;2024-03-25T03:12:52;98475.22;;;4.42;80.21
16664;BME280;8445;51.270;9.434;2024-03-25T03:15:18;98482.31;;;4.41;79.96
16664;BME280;8445;51.270;9.434;2024-03-25T03:17:44;98479.19;;;4.38;79.62
16664;BME280;8445;51.270;9.434;2024-03-25T03:20:10;98486.09;;;4.39;79.98
16664;BME280;8445;51.270;9.434;2024-03-25T03:22:37;98491.69;;;4.44;79.73
16664;BME280;8445;51.270;9.434;2024-03-25T03:25:03;98494.59;;;4.49;80.01
16664;BME280;8445;51.270;9.434;2024-03-25T03:27:29;98497.88;;;4.51;80.03
16664;BME280;8445;51.270;9.434;2024-03-25T03:29:56;98497.06;;;4.51;79.66
16664;BME280;8445;51.270;9.434;2024-03-25T03:32:22;98495.88;;;4.53;79.64
16664;BME280;8445;51.270;9.434;2024-03-25T03:34:48;98507.09;;;4.55;79.88
16664;BME280;8445;51.270;9.434;2024-03-25T03:37:14;98499.19;;;4.55;79.65
16664;BME280;8445;51.270;9.434;2024-03-25T03:39:40;98505.19;;;4.64;79.02
16664;BME280;8445;51.270;9.434;2024-03-25T03:42:06;98499.75;;;4.65;79.04
16664;BME280;8445;51.270;9.434;2024-03-25T03:44:32;98502.69;;;4.70;79.05
16664;BME280;8445;51.270;9.434;2024-03-25T03:46:58;98504.50;;;4.70;79.05
16664;BME280;8445;51.270;9.434;2024-03-25T03:49:23;98493.59;;;4.73;78.91
16664;BME280;8445;51.270;9.434;2024-03-25T03:51:49;98490.56;;;4.61;78.62
16664;BME280;8445;51.270;9.434;2024-03-25T03:54:15;98515.16;;;4.77;78.83
16664;BME280;8445;51.270;9.434;2024-03-25T03:56:41;98506.06;;;4.79;78.66
16664;BME280;8445;51.270;9.434;2024-03-25T03:59:07;98502.03;;;4.68;78.70
16664;BME280;8445;51.270;9.434;2024-03-25T04:01:33;98512.97;;;4.80;78.26
16664;BME280;8445;51.270;9.434;2024-03-25T04:03:59;98487.91;;;4.61;78.06
16664;BME280;8445;51.270;9.434;2024-03-25T04:06:25;98499.75;;;4.65;77.76
16664;BME280;8445;51.270;9.434;2024-03-25T04:08:50;98505.72;;;4.59;77.41
16664;BME280;8445;51.270;9.434;2024-03-25T04:11:17;98514.50;;;4.52;77.64
16664;BME280;8445;51.270;9.434;2024-03-25T04:13:43;98509.81;;;4.39;77.73
16664;BME280;8445;51.270;9.434;2024-03-25T04:16:09;98494.94;;;4.23;77.46
16664;BME280;8445;51.270;9.434;2024-03-25T04:18:35;98517.47;;;4.26;77.47
16664;BME280;8445;51.270;9.434;2024-03-25T04:21:01;98514.28;;;4.15;78.01
16664;BME280;8445;51.270;9.434;2024-03-25T04:23:27;98521.50;;;4.13;77.74
16664;BME280;8445;51.270;9.434;2024-03-25T04:25:53;98516.94;;;4.07;78.22
16664;BME280;8445;51.270;9.434;2024-03-25T04:28:20;98465.09;;;3.77;78.09
16664;BME280;8445;51.270;9.434;2024-03-25T04:30:53;98518.13;;;4.05;77.94
16664;BME280;8445;51.270;9.434;2024-03-25T04:33:19;98523.56;;;4.03;78.21
16664;BME280;8445;51.270;9.434;2024-03-25T04:35:46;98516.34;;;3.97;78.34
16664;BME280;8445;51.270;9.434;2024-03-25T04:38:15;98520.97;;;3.95;78.42
16664;BME280;8445;51.270;9.434;2024-03-25T04:40:41;98527.56;;;3.91;78.68
16664;BME280;8445;51.270;9.434;2024-03-25T04:43:07;98531.03;;;3.92;78.64
16664;BME280;8445;51.270;9.434;2024-03-25T04:45:33;98516.59;;;3.79;78.66
16664;BME280;8445;51.270;9.434;2024-03-25T04:47:59;98534.66;;;3.91;78.74
16664;BME280;8445;51.270;9.434;2024-03-25T04:50:26;98502.94;;;3.76;78.57
16664;BME280;8445;51.270;9.434;2024-03-25T04:52:52;98530.19;;;3.91;78.38
16664;BME280;8445;51.270;9.434;2024-03-25T04:55:18;98543.38;;;3.91;78.31
16664;BME280;8445;51.270;9.434;2024-03-25T04:57:44;98547.66;;;3.92;78.81
16664;BME280;8445;51.270;9.434;2024-03-25T05:00:10;98542.38;;;3.92;79.40
16664;BME280;8445;51.270;9.434;2024-03-25T05:02:38;98545.38;;;3.89;78.83
16664;BME280;8445;51.270;9.434;2024-03-25T05:05:04;98544.03;;;3.93;79.15
16664;BME280;8445;51.270;9.434;2024-03-25T05:07:33;98556.19;;;3.94;79.22
16664;BME280;8445;51.270;9.434;2024-03-25T05:09:59;98533.38;;;3.78;79.01
16664;BME280;8445;51.270;9.434;2024-03-25T05:12:25;98549.94;;;3.87;78.79
16664;BME280;8445;51.270;9.434;2024-03-25T05:14:56;98550.13;;;3.85;79.67
16664;BME280;8445;51.270;9.434;2024-03-25T05:17:22;98550.47;;;3.82;79.44
16664;BME280;8445;51.270;9.434;2024-03-25T05:19:48;98554.75;;;3.83;79.41
16664;BME280;8445;51.270;9.434;2024-03-25T05:22:14;98551.66;;;3.80;79.46
16664;BME280;8445;51.270;9.434;2024-03-25T05:24:40;98560.19;;;3.82;79.36
16664;BME280;8445;51.270;9.434;2024-03-25T05:27:07;98534.41;;;3.69;79.59
16664;BME280;8445;51.270;9.434;2024-03-25T05:29:33;98551.66;;;3.80;79.42
16664;BME280;8445;51.270;9.434;2024-03-25T05:32:00;98555.75;;;3.82;79.72
16664;BME280;8445;51.270;9.434;2024-03-25T05:34:28;98556.91;;;3.80;79.53
16664;BME280;8445;51.270;9.434;2024-03-25T05:36:54;98527.03;;;3.65;79.44
16664;BME280;8445;51.270;9.434;2024-03-25T05:39:21;98560.66;;;3.85;78.99
16664;BME280;8445;51.270;9.434;2024-03-25T05:41:48;98555.09;;;3.89;79.68
16664;BME280;8445;51.270;9.434;2024-03-25T05:44:15;98543.75;;;3.80;79.31
16664;BME280;8445;51.270;9.434;2024-03-25T05:46:41;98569.03;;;3.97;79.39
16664;BME280;8445;51.270;9.434;2024-03-25T05:49:07;98582.81;;;4.07;79.20
16664;BME280;8445;51.270;9.434;2024-03-25T05:51:33;98578.84;;;4.11;79.26
16664;BME280;8445;51.270;9.434;2024-03-25T05:53:59;98576.56;;;4.08;79.23
16664;BME280;8445;51.270;9.434;2024-03-25T05:56:26;98570.16;;;4.03;79.34
16664;BME280;8445;51.270;9.434;2024-03-25T05:58:57;98592.50;;;4.15;79.20
16664;BME280;8445;51.270;9.434;2024-03-25T06:01:24;98580.31;;;4.14;79.63
16664;BME280;8445;51.270;9.434;2024-03-25T06:03:50;98595.69;;;4.33;79.68
16664;BME280;8445;51.270;9.434;2024-03-25T06:06:16;98598.06;;;4.51;79.59
16664;BME280;8445;51.270;9.434;2024-03-25T06:08:41;98578.28;;;4.55;79.65
16664;BME280;8445;51.270;9.434;2024-03-25T06:11:07;98595.88;;;4.86;79.56
16664;BME280;8445;51.270;9.434;2024-03-25T06:13:33;98604.66;;;5.01;79.46
16664;BME280;8445;51.270;9.434;2024-03-25T06:15:59;98599.25;;;5.17;79.40
16664;BME280;8445;51.270;9.434;2024-03-25T06:18:25;98574.97;;;5.22;78.90
16664;BME280;8445;51.270;9.434;2024-03-25T06:20:51;98592.38;;;5.46;78.75
16664;BME280;8445;51.270;9.434;2024-03-25T06:23:28;98593.41;;;5.59;78.65
16664;BME280;8445;51.270;9.434;2024-03-25T06:25:55;98575.22;;;5.64;78.34
16664;BME280;8445;51.270;9.434;2024-03-25T06:28:22;98587.84;;;5.84;78.26
16664;BME280;8445;51.270;9.434;2024-03-25T06:30:50;98582.19;;;5.87;78.02
16664;BME280;8445;51.270;9.434;2024-03-25T06:33:35;98572.22;;;5.97;77.93
16664;BME280;8445;51.270;9.434;2024-03-25T06:36:20;98585.06;;;6.15;77.90
16664;BME280;8445;51.270;9.434;2024-03-25T06:38:46;98595.72;;;6.21;77.68
16664;BME280;8445;51.270;9.434;2024-03-25T06:41:12;98602.63;;;6.22;77.68
16664;BME280;8445;51.270;9.434;2024-03-25T06:43:39;98607.06;;;6.37;77.61
16664;BME280;8445;51.270;9.434;2024-03-25T06:46:09;98593.66;;;6.38;77.58
16664;BME280;8445;51.270;9.434;2024-03-25T06:48:35;98607.03;;;6.51;77.27
16664;BME280;8445;51.270;9.434;2024-03-25T06:51:04;98621.19;;;6.59;77.31
16664;BME280;8445;51.270;9.434;2024-03-25T06:53:30;98614.88;;;6.60;77.02
16664;BME280;8445;51.270;9.434;2024-03-25T06:56:00;98623.25;;;6.63;77.44
16664;BME280;8445;51.270;9.434;2024-03-25T06:58:27;98626.28;;;6.60;77.06
16664;BME280;8445;51.270;9.434;2024-03-25T07:00:55;98613.63;;;6.56;76.85
16664;BME280;8445;51.270;9.434;2024-03-25T07:03:23;98628.97;;;6.67;77.05
16664;BME280;8445;51.270;9.434;2024-03-25T07:05:51;98632.44;;;6.67;77.03
16664;BME280;8445;51.270;9.434;2024-03-25T07:08:21;98624.06;;;6.64;76.75
16664;BME280;8445;51.270;9.434;2024-03-25T07:10:47;98643.75;;;6.76;76.68
16664;BME280;8445;51.270;9.434;2024-03-25T07:13:13;98640.91;;;6.77;76.38
16664;BME280;8445;51.270;9.434;2024-03-25T07:15:39;98644.75;;;6.75;76.42
16664;BME280;8445;51.270;9.434;2024-03-25T07:18:06;98650.28;;;6.80;76.74
16664;BME280;8445;51.270;9.434;2024-03-25T07:20:32;98641.00;;;6.84;76.11
16664;BME280;8445;51.270;9.434;2024-03-25T07:22:58;98647.78;;;6.93;76.33
16664;BME280;8445;51.270;9.434;2024-03-25T07:25:25;98633.00;;;6.99;76.29
16664;BME280;8445;51.270;9.434;2024-03-25T07:27:54;98648.31;;;7.25;76.09
16664;BME280;8445;51.270;9.434;2024-03-25T07:30:21;98653.13;;;7.36;75.86
16664;BME280;8445;51.270;9.434;2024-03-25T07:32:50;98654.59;;;7.45;75.45
16664;BME280;8445;51.270;9.434;2024-03-25T07:35:16;98646.31;;;7.55;76.00
16664;BME280;8445;51.270;9.434;2024-03-25T07:37:45;98651.53;;;7.69;76.15
16664;BME280;8445;51.270;9.434;2024-03-25T07:40:11;98650.38;;;7.79;75.41
16664;BME280;8445;51.270;9.434;2024-03-25T07:42:38;98652.44;;;7.83;75.84
16664;BME280;8445;51.270;9.434;2024-03-25T07:45:05;98648.38;;;7.87;75.69
16664;BME280;8445;51.270;9.434;2024-03-25T07:47:35;98641.91;;;7.90;74.71
16664;BME280;8445;51.270;9.434;2024-03-25T07:50:01;98653.00;;;8.07;75.11
16664;BME280;8445;51.270;9.434;2024-03-25T07:52:27;98654.31;;;8.24;74.77
16664;BME280;8445;51.270;9.434;2024-03-25T07:54:54;98633.16;;;8.30;74.03
16664;BME280;8445;51.270;9.434;2024-03-25T07:57:21;98647.97;;;8.53;73.42
16664;BME280;8445;51.270;9.434;2024-03-25T07:59:47;98657.00;;;8.65;73.41
16664;BME280;8445;51.270;9.434;2024-03-25T08:02:13;98650.91;;;8.78;73.21
16664;BME280;8445;51.270;9.434;2024-03-25T08:04:39;98644.38;;;8.80;72.70
16664;BME280;8445;51.270;9.434;2024-03-25T08:07:06;98656.66;;;8.95;71.04
16664;BME280;8445;51.270;9.434;2024-03-25T08:09:32;98668.16;;;9.02;70.74
16664;BME280;8445;51.270;9.434;2024-03-25T08:11:59;98665.31;;;9.16;70.94
16664;BME280;8445;51.270;9.434;2024-03-25T08:14:25;98661.66;;;9.24;70.87
16664;BME280;8445;51.270;9.434;2024-03-25T08:16:51;98665.75;;;9.46;70.03
16664;BME280;8445;51.270;9.434;2024-03-25T08:19:17;98661.69;;;9.64;69.84
16664;BME280;8445;51.270;9.434;2024-03-25T08:21:43;98667.59;;;9.79;69.09
16664;BME280;8445;51.270;9.434;2024-03-25T08:24:08;98675.19;;;9.89;69.00
16664;BME280;8445;51.270;9.434;2024-03-25T08:26:34;98665.56;;;9.81;67.46
16664;BME280;8445;51.270;9.434;2024-03-25T08:29:00;98674.78;;;9.78;67.29
16664;BME280;8445;51.270;9.434;2024-03-25T08:31:30;98670.47;;;9.77;67.68
16664;BME280;8445;51.270;9.434;2024-03-25T08:33:55;98670.03;;;9.74;66.38
16664;BME280;8445;51.270;9.434;2024-03-25T08:36:21;98674.56;;;9.80;66.40
16664;BME280;8445;51.270;9.434;2024-03-25T08:38:47;98677.63;;;9.84;66.29
16664;BME280;8445;51.270;9.434;2024-03-25T08:41:13;98682.09;;;9.96;64.17
16664;BME280;8445;51.270;9.434;2024-03-25T08:43:40;98680.88;;;10.05;65.28
16664;BME280;8445;51.270;9.434;2024-03-25T08:46:06;98684.56;;;10.24;63.80
16664;BME280;8445;51.270;9.434;2024-03-25T08:48:32;98686.56;;;10.42;64.27
16664;BME280;8445;51.270;9.434;2024-03-25T08:50:58;98679.97;;;10.51;63.44
16664;BME280;8445;51.270;9.434;2024-03-25T08:53:24;98683.66;;;10.57;63.07
16664;BME280;8445;51.270;9.434;2024-03-25T08:55:50;98672.38;;;10.61;62.29
16664;BME280;8445;51.270;9.434;2024-03-25T08:58:16;98676.06;;;10.60;60.60
16664;BME280;8445;51.270;9.434;2024-03-25T09:00:43;98673.22;;;10.55;61.48
16664;BME280;8445;51.270;9.434;2024-03-25T09:03:11;98680.19;;;10.50;60.24
16664;BME280;8445;51.270;9.434;2024-03-25T09:05:37;98683.28;;;10.40;61.48
16664;BME280;8445;51.270;9.434;2024-03-25T09:08:08;98679.44;;;10.29;62.28
16664;BME280;8445;51.270;9.434;2024-03-25T09:10:37;98684.34;;;10.19;63.04
16664;BME280;8445;51.270;9.434;2024-03-25T09:13:22;98685.38;;;10.05;63.32
16664;BME280;8445;51.270;9.434;2024-03-25T09:15:51;98685.78;;;9.95;63.87
16664;BME280;8445;51.270;9.434;2024-03-25T09:18:20;98683.97;;;9.89;63.96
16664;BME280;8445;51.270;9.434;2024-03-25T09:20:46;98684.16;;;9.88;63.66
16664;BME280;8445;51.270;9.434;2024-03-25T09:23:12;98686.44;;;9.91;63.92
16664;BME280;8445;51.270;9.434;2024-03-25T09:25:40;98679.63;;;10.01;64.10
16664;BME280;8445;51.270;9.434;2024-03-25T09:28:07;98674.13;;;10.16;63.77
16664;BME280;8445;51.270;9.434;2024-03-25T09:30:35;98673.91;;;10.31;63.75
16664;BME280;8445;51.270;9.434;2024-03-25T09:33:01;98674.25;;;10.41;63.36
16664;BME280;8445;51.270;9.434;2024-03-25T09:35:27;98653.97;;;10.47;63.23
16664;BME280;8445;51.270;9.434;2024-03-25T09:37:52;98669.28;;;10.64;63.17
16664;BME280;8445;51.270;9.434;2024-03-25T09:40:19;98672.91;;;10.77;62.31
16664;BME280;8445;51.270;9.434;2024-03-25T09:42:56;98659.34;;;10.85;62.34
16664;BME280;8445;51.270;9.434;2024-03-25T09:45:25;98683.59;;;11.08;62.21
16664;BME280;8445;51.270;9.434;2024-03-25T09:47:55;98677.19;;;11.22;62.16
16664;BME280;8445;51.270;9.434;2024-03-25T09:50:22;98644.84;;;11.12;61.81
16664;BME280;8445;51.270;9.434;2024-03-25T09:52:51;98676.59;;;11.45;61.26
16664;BME280;8445;51.270;9.434;2024-03-25T09:55:17;98677.31;;;11.59;60.77
16664;BME280;8445;51.270;9.434;2024-03-25T09:57:44;98673.53;;;11.73;61.24
16664;BME280;8445;51.270;9.434;2024-03-25T10:00:11;98667.06;;;11.88;61.31
16664;BME280;8445;51.270;9.434;2024-03-25T10:02:45;98672.00;;;12.09;59.82
16664;BME280;8445;51.270;9.434;2024-03-25T10:05:12;98664.47;;;12.24;59.13
16664;BME280;8445;51.270;9.434;2024-03-25T10:07:38;98653.94;;;12.29;58.47
16664;BME280;8445;51.270;9.434;2024-03-25T10:10:10;98669.00;;;12.42;57.05
16664;BME280;8445;51.270;9.434;2024-03-25T10:12:37;98666.41;;;12.35;58.00
16664;BME280;8445;51.270;9.434;2024-03-25T10:15:06;98665.13;;;12.38;58.54
16664;BME280;8445;51.270;9.434;2024-03-25T10:17:33;98664.47;;;12.42;59.26
16664;BME280;8445;51.270;9.434;2024-03-25T10:20:03;98655.69;;;12.54;58.46
16664;BME280;8445;51.270;9.434;2024-03-25T10:22:43;98663.72;;;12.72;57.92
16664;BME280;8445;51.270;9.434;2024-03-25T10:25:27;98637.59;;;12.74;57.71
16664;BME280;8445;51.270;9.434;2024-03-25T10:28:01;98650.91;;;12.92;57.61
16664;BME280;8445;51.270;9.434;2024-03-25T10:30:38;98650.91;;;12.92;57.06
16664;BME280;8445;51.270;9.434;2024-03-25T10:33:05;98630.59;;;12.73;56.23
16664;BME280;8445;51.270;9.434;2024-03-25T10:35:34;98657.78;;;12.70;55.29
16664;BME280;8445;51.270;9.434;2024-03-25T10:40:33;98635.69;;;12.26;56.10
16664;BME280;8445;51.270;9.434;2024-03-25T10:43:13;98634.50;;;12.22;55.67
16664;BME280;8445;51.270;9.434;2024-03-25T10:45:47;98638.50;;;12.31;55.54
16664;BME280;8445;51.270;9.434;2024-03-25T10:50:46;98641.97;;;12.50;55.77
16664;BME280;8445;51.270;9.434;2024-03-25T10:53:18;98647.25;;;12.57;56.06
16664;BME280;8445;51.270;9.434;2024-03-25T10:55:47;98619.66;;;12.45;54.79
16664;BME280;8445;51.270;9.434;2024-03-25T10:58:16;98604.44;;;12.27;55.22
16664;BME280;8445;51.270;9.434;2024-03-25T11:00:44;98637.97;;;12.41;55.52
16664;BME280;8445;51.270;9.434;2024-03-25T11:03:12;98624.78;;;12.28;54.55
16664;BME280;8445;51.270;9.434;2024-03-25T11:05:40;98635.84;;;12.31;54.71
16664;BME280;8445;51.270;9.434;2024-03-25T11:08:16;98620.56;;;12.20;54.01
16664;BME280;8445;51.270;9.434;2024-03-25T11:10:46;98640.16;;;12.32;54.42
16664;BME280;8445;51.270;9.434;2024-03-25T11:13:19;98629.00;;;12.35;54.29
16664;BME280;8445;51.270;9.434;2024-03-25T11:15:48;98620.94;;;12.42;53.48
16664;BME280;8445;51.270;9.434;2024-03-25T11:18:22;98607.94;;;12.46;52.21
16664;BME280;8445;51.270;9.434;2024-03-25T11:21:07;98619.22;;;12.48;50.03
16664;BME280;8445;51.270;9.434;2024-03-25T11:23:44;98607.34;;;12.43;52.20
16664;BME280;8445;51.270;9.434;2024-03-25T11:26:21;98610.75;;;12.51;51.85
16664;BME280;8445;51.270;9.434;2024-03-25T11:28:48;98607.50;;;12.49;51.84
16664;BME280;8445;51.270;9.434;2024-03-25T11:31:15;98606.22;;;12.51;52.19
16664;BME280;8445;51.270;9.434;2024-03-25T11:33:42;98606.44;;;12.50;51.71
16664;BME280;8445;51.270;9.434;2024-03-25T11:36:09;98606.50;;;12.61;50.21
16664;BME280;8445;51.270;9.434;2024-03-25T11:38:35;98603.84;;;12.61;49.10
16664;BME280;8445;51.270;9.434;2024-03-25T11:41:02;98612.50;;;12.75;50.09
16664;BME280;8445;51.270;9.434;2024-03-25T11:43:29;98606.16;;;12.88;48.26
16664;BME280;8445;51.270;9.434;2024-03-25T11:45:55;98601.75;;;12.93;48.59
16664;BME280;8445;51.270;9.434;2024-03-25T11:48:20;98601.09;;;12.98;48.16
16664;BME280;8445;51.270;9.434;2024-03-25T11:50:47;98596.78;;;12.97;48.61
16664;BME280;8445;51.270;9.434;2024-03-25T11:53:16;98573.97;;;12.83;48.61
16664;BME280;8445;51.270;9.434;2024-03-25T11:55:47;98586.75;;;12.92;49.04
16664;BME280;8445;51.270;9.434;2024-03-25T11:58:14;98575.25;;;12.92;49.53
16664;BME280;8445;51.270;9.434;2024-03-25T12:00:45;98582.91;;;12.88;48.99
16664;BME280;8445;51.270;9.434;2024-03-25T12:03:15;98575.66;;;12.77;47.60
16664;BME280;8445;51.270;9.434;2024-03-25T12:05:44;98579.09;;;12.66;48.30
16664;BME280;8445;51.270;9.434;2024-03-25T12:08:10;98572.25;;;12.58;47.60
16664;BME280;8445;51.270;9.434;2024-03-25T12:10:38;98566.47;;;12.43;47.21
16664;BME280;8445;51.270;9.434;2024-03-25T12:13:25;98569.22;;;12.36;48.20
16664;BME280;8445;51.270;9.434;2024-03-25T12:15:55;98567.13;;;12.38;48.92
16664;BME280;8445;51.270;9.434;2024-03-25T12:18:21;98562.38;;;12.40;48.95
16664;BME280;8445;51.270;9.434;2024-03-25T12:20:48;98552.31;;;12.42;48.36
16664;BME280;8445;51.270;9.434;2024-03-25T12:23:14;98560.69;;;12.46;48.62
16664;BME280;8445;51.270;9.434;2024-03-25T12:25:41;98548.00;;;12.41;47.35
16664;BME280;8445;51.270;9.434;2024-03-25T12:28:13;98548.91;;;12.35;48.20
16664;BME280;8445;51.270;9.434;2024-03-25T12:30:53;98539.72;;;12.31;47.45
16664;BME280;8445;51.270;9.434;2024-03-25T12:33:28;98536.66;;;12.28;47.98
16664;BME280;8445;51.270;9.434;2024-03-25T12:35:56;98529.16;;;12.36;48.33
16664;BME280;8445;51.270;9.434;2024-03-25T12:38:31;98530.34;;;12.40;48.39
16664;BME280;8445;51.270;9.434;2024-03-25T12:41:16;98538.50;;;12.46;46.96
16664;BME280;8445;51.270;9.434;2024-03-25T12:43:50;98533.00;;;12.40;47.38
16664;BME280;8445;51.270;9.434;2024-03-25T12:46:19;98538.34;;;12.40;47.95
16664;BME280;8445;51.270;9.434;2024-03-25T12:48:46;98526.50;;;12.36;47.79
16664;BME280;8445;51.270;9.434;2024-03-25T12:51:17;98516.41;;;12.38;48.50
16664;BME280;8445;51.270;9.434;2024-03-25T12:53:48;98518.19;;;12.45;48.62
16664;BME280;8445;51.270;9.434;2024-03-25T12:56:16;98520.41;;;12.48;48.48
16664;BME280;8445;51.270;9.434;2024-03-25T12:58:47;98527.94;;;12.51;48.28
16664;BME280;8445;51.270;9.434;2024-03-25T13:01:19;98498.44;;;12.46;48.62
16664;BME280;8445;51.270;9.434;2024-03-25T13:03:46;98516.97;;;12.59;48.38
16664;BME280;8445;51.270;9.434;2024-03-25T13:06:12;98511.16;;;12.62;47.58
16664;BME280;8445;51.270;9.434;2024-03-25T13:08:38;98504.44;;;12.71;47.54
16664;BME280;8445;51.270;9.434;2024-03-25T13:11:04;98495.28;;;12.79;46.04
16664;BME280;8445;51.270;9.434;2024-03-25T13:13:30;98502.75;;;13.00;46.39
16664;BME280;8445;51.270;9.434;2024-03-25T13:15:56;98506.84;;;13.14;44.96
16664;BME280;8445;51.270;9.434;2024-03-25T13:18:21;98497.34;;;13.30;45.06
16664;BME280;8445;51.270;9.434;2024-03-25T13:20:47;98479.19;;;13.44;45.14
16664;BME280;8445;51.270;9.434;2024-03-25T13:23:13;98498.13;;;13.77;45.25
16664;BME280;8445;51.270;9.434;2024-03-25T13:25:39;98484.25;;;13.92;45.19